Terminal Aerodrome Forecast
Issued by NWS

Home | Current Version | Previous Version | Graphics & Text | Print | Product List | Glossary On
Versions: 1 2 3 4 5 6 7 8 9 10 11 12 13 14 15 16 17 18 19 20 21 22 23 24 25 26 27 28
341
FTUS45 KGGW 232054 AAA
TAFGDV
TAF AMD
KGDV 232054Z 2321/2418 06010KT 6SM -SHSN BR BKN007 OVC025
     FM240100 05008KT P6SM SCT025 OVC040
      TEMPO 2401/2403 BKN025=

USA.gov is the U.S. government's official web portal to all federal, state and local government web resources and services.